Frank Pais International Airport
MUHG : now visible

Airfield :











YOU CAN JOIN US ON...

 
LOGIN :

Register | Disclaimer

   EN    FR    IT 

 









Legend :    VFR   Marginal VFR   IFR   Intensive IFR   Very Intensive IFR
Visi :
Ceiling :
>= 8 km
>= 3000ft
5 to 8 km
1000 to 3000 ft
1500m to 5 km
500 to 1000 ft
800 to 1500m
200 to 500 ft
< 800m
< 200 ft
Symbols :   Thunderstorms  Fog  Heavy snow  Heavy precipitations  Wind > 20 kt






- Airport Elevation : 361 ft
- IATA code : HOG


MUHG - Frank Pais International

CURRENT METAR :
  • 031750Z 05013KT 010V070 9000 SCT039 BKN042 29/20 Q1013

EXPIRED METARs :
  • 031650Z 03012KT 360V070 9000 SCT030 BKN060 29/20 Q1014
  • 031550Z 03010KT 360V060 9000 BKN033 29/21 Q1015

TAF MUHG
Valid from the 03 at 18:00 until the 04 at 18:00 UTC


031700Z 0318/0418 03010KT 9000 SCT020 BKN070
TEMPO 0318/0324 5000 SHRA BKN020
BECMG 0401/0403 VRB03KT



MET'MAP, your aeronautical weather chart ! - Copyright ORBIFLY December 2007 - Disclaimer

ORBIFLY MET'MAP TEAM :

Programming & Development : Alexandra Zaïnal
Concept & original design : Baudouin d'Aumeries
Assistance for programming : Marc-Olivier Méhu
Technical & hardware support : Manuel Goepfert

Contact : metmap@orbifly.com




SOURCES & CREDITS :

   NOAA       Earth
Advisory